FRS123 ETJA-EDNY
Flight info
| Callsign | FRS123 |
|---|---|
| Flight time | N/A |
| Altitude | 3500 |
| Route | DCT |
| Aircraft | PA24/L-SDGRY/S |
Departure
| Time | N/A |
|---|---|
| Airport | ETJA |
Arrival
| Time | 2026-05-04 06:58 |
|---|---|
| Airport | Bodensee Airport Friedrichshafen (EDNY) |
| Time | Latitude | Longitude | Altitude | Speed | Heading |
|---|---|---|---|---|---|
| 2026-05-04 06:31 | 47.98664 | 10.23739 | 2071 ft | 0 kts | 329° |
| 2026-05-04 06:34 | 47.98678 | 10.23712 | 2071 ft | 4 kts | 280° |
| 2026-05-04 06:34 | 47.98669 | 10.23672 | 2072 ft | 4 kts | 253° |
| 2026-05-04 06:34 | 47.98675 | 10.23638 | 2073 ft | 3 kts | 307° |
| 2026-05-04 06:34 | 47.98685 | 10.23625 | 2073 ft | 3 kts | 326° |
| 2026-05-04 06:35 | 47.98723 | 10.23568 | 2074 ft | 10 kts | 271° |
| 2026-05-04 06:36 | 47.95051 | 10.23214 | 3593 ft | 107 kts | 152° |
| 2026-05-04 06:37 | 47.94354 | 10.23675 | 3844 ft | 110 kts | 153° |
| 2026-05-04 06:37 | 47.93612 | 10.24140 | 3925 ft | 127 kts | 153° |
| 2026-05-04 06:37 | 47.92746 | 10.24701 | 3909 ft | 142 kts | 153° |
| 2026-05-04 06:37 | 47.91813 | 10.25303 | 3905 ft | 150 kts | 153° |
| 2026-05-04 06:38 | 47.90845 | 10.25945 | 3889 ft | 155 kts | 155° |
| 2026-05-04 06:38 | 47.89787 | 10.25947 | 3878 ft | 158 kts | 198° |
| 2026-05-04 06:40 | 47.87498 | 10.14893 | 3901 ft | 166 kts | 257° |
| 2026-05-04 06:40 | 47.87258 | 10.13214 | 3896 ft | 165 kts | 258° |
| 2026-05-04 06:40 | 47.87036 | 10.11533 | 3898 ft | 166 kts | 258° |
| 2026-05-04 06:40 | 47.86808 | 10.09853 | 3897 ft | 166 kts | 258° |
| 2026-05-04 06:41 | 47.86570 | 10.08172 | 3895 ft | 166 kts | 258° |
| 2026-05-04 06:41 | 47.86327 | 10.06508 | 3895 ft | 167 kts | 259° |
| 2026-05-04 06:41 | 47.86100 | 10.04821 | 3889 ft | 167 kts | 258° |
| 2026-05-04 06:41 | 47.85849 | 10.03142 | 3892 ft | 166 kts | 256° |
| 2026-05-04 06:42 | 47.85537 | 10.01496 | 3883 ft | 166 kts | 242° |
| 2026-05-04 06:42 | 47.84795 | 10.00200 | 3897 ft | 164 kts | 225° |
| 2026-05-04 06:42 | 47.84045 | 9.98933 | 3898 ft | 163 kts | 226° |
| 2026-05-04 06:44 | 47.78921 | 9.90459 | 3889 ft | 155 kts | 226° |
| 2026-05-04 06:44 | 47.78185 | 9.89287 | 3888 ft | 155 kts | 225° |
| 2026-05-04 06:44 | 47.77445 | 9.88122 | 3890 ft | 154 kts | 225° |
| 2026-05-04 06:45 | 47.76709 | 9.86960 | 3890 ft | 155 kts | 225° |
| 2026-05-04 06:45 | 47.75975 | 9.85790 | 3891 ft | 155 kts | 225° |
| 2026-05-04 06:45 | 47.75244 | 9.84646 | 3892 ft | 154 kts | 225° |
| 2026-05-04 06:45 | 47.74508 | 9.83487 | 3889 ft | 154 kts | 225° |
| 2026-05-04 06:46 | 47.73779 | 9.82315 | 3891 ft | 154 kts | 226° |
| 2026-05-04 06:46 | 47.73044 | 9.81155 | 3893 ft | 154 kts | 225° |
| 2026-05-04 06:46 | 47.72305 | 9.80005 | 3896 ft | 154 kts | 225° |
| 2026-05-04 06:46 | 47.71565 | 9.78835 | 3894 ft | 156 kts | 225° |
| 2026-05-04 06:48 | 47.66345 | 9.70745 | 3854 ft | 156 kts | 226° |
| 2026-05-04 06:48 | 47.65600 | 9.69565 | 3778 ft | 157 kts | 223° |
| 2026-05-04 06:49 | 47.64847 | 9.68413 | 3705 ft | 154 kts | 225° |
| 2026-05-04 06:50 | 47.60620 | 9.59756 | 2783 ft | 151 kts | 300° |
| 2026-05-04 06:51 | 47.61293 | 9.58553 | 2584 ft | 151 kts | 313° |
| 2026-05-04 06:51 | 47.61955 | 9.57506 | 2639 ft | 132 kts | 319° |
| 2026-05-04 06:51 | 47.62640 | 9.56627 | 2580 ft | 125 kts | 321° |
| 2026-05-04 06:51 | 47.63267 | 9.55834 | 2612 ft | 114 kts | 321° |
| 2026-05-04 06:52 | 47.63843 | 9.55098 | 2634 ft | 108 kts | 321° |
| 2026-05-04 06:52 | 47.64379 | 9.54279 | 2512 ft | 116 kts | 301° |
| 2026-05-04 06:52 | 47.64494 | 9.53113 | 2453 ft | 113 kts | 258° |
| 2026-05-04 06:52 | 47.64155 | 9.52169 | 2370 ft | 104 kts | 237° |
| 2026-05-04 06:53 | 47.63773 | 9.51313 | 2291 ft | 96 kts | 236° |
| 2026-05-04 06:53 | 47.63395 | 9.50494 | 2211 ft | 97 kts | 235° |
| 2026-05-04 06:53 | 47.63023 | 9.49698 | 2187 ft | 95 kts | 235° |
| 2026-05-04 06:53 | 47.62644 | 9.48893 | 2159 ft | 94 kts | 235° |
| 2026-05-04 06:54 | 47.62274 | 9.48109 | 2116 ft | 95 kts | 234° |
| 2026-05-04 06:54 | 47.61899 | 9.47309 | 2089 ft | 94 kts | 238° |
| 2026-05-04 06:54 | 47.61771 | 9.46351 | 2007 ft | 97 kts | 279° |
| 2026-05-04 06:54 | 47.62080 | 9.45508 | 1985 ft | 94 kts | 316° |
| 2026-05-04 06:55 | 47.62601 | 9.44942 | 1958 ft | 92 kts | 331° |
| 2026-05-04 06:55 | 47.63163 | 9.44481 | 1939 ft | 92 kts | 332° |
| 2026-05-04 06:55 | 47.63735 | 9.44085 | 1951 ft | 92 kts | 348° |
| 2026-05-04 06:55 | 47.64368 | 9.44226 | 1941 ft | 92 kts | 29° |
| 2026-05-04 06:56 | 47.64787 | 9.44899 | 1946 ft | 92 kts | 61° |
| 2026-05-04 06:57 | 47.66591 | 9.49754 | 1447 ft | 66 kts | 58° |
| 2026-05-04 06:58 | 47.66822 | 9.50345 | 1371 ft | 65 kts | 60° |
| 2026-05-04 06:58 | 47.67014 | 9.50839 | 1349 ft | 43 kts | 59° |
| 2026-05-04 06:58 | 47.67117 | 9.51103 | 1354 ft | 17 kts | 60° |
| 2026-05-04 06:58 | 47.67139 | 9.51215 | 1355 ft | 7 kts | 110° |
| 2026-05-04 06:59 | 47.67113 | 9.51256 | 1354 ft | 5 kts | 139° |
| 2026-05-04 06:59 | 47.67091 | 9.51284 | 1353 ft | 3 kts | 141° |
| 2026-05-04 06:59 | 47.67078 | 9.51299 | 1353 ft | 3 kts | 142° |
| 2026-05-04 06:59 | 47.67051 | 9.51329 | 1353 ft | 6 kts | 145° |
| 2026-05-04 07:01 | 47.66868 | 9.51271 | 1354 ft | 0 kts | 139° |